createdAt,value
2019-02-23T00:00:16.941Z,48.00
2019-02-23T00:02:45.507Z,46.15
2019-02-23T00:05:14.022Z,47.25
2019-02-23T00:07:47.903Z,49.05
2019-02-23T00:10:13.818Z,49.48
2019-02-23T00:12:44.042Z,51.83
2019-02-23T00:15:12.517Z,53.98
2019-02-23T00:21:13.514Z,46.37
2019-02-23T00:23:42.110Z,43.78
2019-02-23T00:26:10.573Z,42.38
2019-02-23T00:28:39.850Z,42.05
2019-02-23T00:31:08.820Z,41.77
2019-02-23T00:36:26.902Z,41.60
2019-02-23T00:38:55.585Z,51.63
2019-02-23T00:54:18.315Z,67.90
2019-02-23T01:55:33.526Z,133.18
2019-02-23T01:58:02.453Z,125.27
2019-02-23T02:04:12.850Z,126.15
2019-02-23T02:10:23.644Z,122.00
2019-02-23T02:12:54.578Z,120.82
2019-02-23T02:15:23.412Z,122.17
2019-02-23T02:17:51.916Z,124.85
2019-02-23T02:20:20.421Z,117.22
2019-02-23T02:22:48.918Z,114.62
2019-02-23T02:25:17.536Z,115.30
2019-02-23T02:31:14.472Z,108.57
2019-02-23T02:34:03.508Z,105.43
2019-02-23T02:40:13.382Z,100.82
2019-02-23T02:46:22.876Z,100.55
2019-02-23T02:48:51.488Z,99.45
2019-02-23T02:51:20.085Z,94.80
2019-02-23T02:57:29.872Z,89.92
2019-02-23T03:06:15.948Z,84.85
2019-02-23T03:12:13.832Z,74.62
2019-02-23T03:14:42.508Z,76.40
2019-02-23T03:17:12.850Z,72.32
2019-02-23T03:23:10.375Z,74.80
2019-02-23T03:29:07.831Z,69.90
2019-02-23T03:31:36.357Z,76.05
2019-02-23T03:37:34.411Z,79.90
2019-02-23T03:43:44.031Z,75.20
2019-02-23T03:46:12.596Z,77.32
2019-02-23T03:48:41.104Z,72.42
2019-02-23T03:54:38.131Z,69.05
2019-02-23T03:57:07.005Z,66.30
2019-02-23T03:59:41.694Z,69.03
2019-02-23T04:02:10.243Z,67.72
2019-02-23T04:04:38.761Z,67.32
2019-02-23T04:07:07.847Z,68.33
2019-02-23T04:09:38.174Z,66.07
2019-02-23T04:12:07.184Z,72.50
2019-02-23T04:14:35.925Z,70.87
2019-02-23T04:17:04.640Z,75.65
2019-02-23T04:19:33.218Z,72.58
2019-02-23T04:25:30.273Z,76.12
2019-02-23T04:27:58.795Z,76.40
2019-02-23T04:30:27.281Z,73.33
2019-02-23T04:32:55.846Z,70.80
2019-02-23T04:35:24.833Z,70.42
2019-02-23T04:37:57.484Z,71.60
2019-02-23T04:40:27.401Z,70.92
2019-02-23T04:46:45.595Z,71.00
2019-02-23T04:49:15.609Z,68.45
2019-02-23T04:55:12.267Z,61.95
2019-02-23T05:01:22.250Z,59.73
2019-02-23T05:13:24.057Z,56.15
2019-02-23T05:15:52.751Z,55.80
2019-02-23T05:22:02.617Z,37.80
2019-02-23T05:28:14.269Z,34.40
2019-02-23T05:30:42.743Z,34.88
2019-02-23T05:35:46.719Z,20.10
2019-02-23T05:38:15.420Z,16.67
2019-02-23T05:40:44.082Z,15.40
2019-02-23T05:43:12.813Z,12.23
2019-02-23T05:45:41.687Z,11.00
2019-02-23T05:48:16.529Z,11.05
2019-02-23T05:54:13.542Z,9.70
2019-02-23T05:56:42.373Z,8.05
2019-02-23T06:02:51.851Z,9.78
2019-02-23T06:09:01.654Z,7.45
2019-02-23T06:11:30.153Z,8.83
2019-02-23T06:13:58.657Z,6.83
2019-02-23T06:20:02.499Z,6.60
2019-02-23T06:22:32.934Z,7.25
2019-02-23T06:34:48.818Z,6.10
2019-02-23T06:40:52.436Z,5.33
2019-02-23T06:43:24.048Z,5.42
2019-02-23T06:49:42.220Z,5.33
2019-02-23T06:55:55.098Z,5.05
2019-02-23T06:58:33.167Z,5.97
2019-02-23T07:01:09.735Z,5.78
2019-02-23T07:03:41.802Z,5.30
2019-02-23T07:06:13.841Z,5.12
2019-02-23T07:08:44.603Z,5.78
2019-02-23T07:11:18.371Z,4.72
2019-02-23T07:17:09.111Z,5.65
2019-02-23T07:19:42.320Z,4.35
2019-02-23T07:25:10.811Z,5.30
2019-02-23T07:31:08.200Z,4.42
2019-02-23T07:37:29.336Z,4.35
2019-02-23T07:39:58.429Z,4.45
2019-02-23T07:42:36.285Z,5.53
2019-02-23T07:45:07.528Z,3.98
2019-02-23T07:47:36.025Z,4.60
2019-02-23T07:57:07.824Z,4.08
2019-02-23T08:03:11.439Z,4.97
2019-02-23T08:05:53.075Z,4.40
2019-02-23T08:11:14.100Z,4.33
2019-02-23T08:13:42.773Z,5.22
2019-02-23T08:16:11.343Z,6.22
2019-02-23T08:18:40.064Z,5.08
2019-02-23T08:21:09.949Z,4.53
2019-02-23T08:23:40.289Z,4.20
2019-02-23T08:26:10.774Z,3.98
2019-02-23T08:28:44.731Z,4.12
2019-02-23T08:43:57.522Z,4.62
2019-02-23T08:50:04.192Z,4.22
2019-02-23T08:52:36.086Z,3.85
2019-02-23T08:55:08.459Z,3.80
2019-02-23T08:57:36.959Z,3.67
2019-02-23T09:00:13.814Z,3.85
2019-02-23T09:02:42.428Z,3.83
2019-02-23T09:05:12.315Z,3.12
2019-02-23T09:17:43.789Z,2.95
2019-02-23T09:20:12.930Z,3.33
2019-02-23T09:33:07.483Z,3.15
2019-02-23T09:35:36.478Z,2.75
2019-02-23T09:41:47.886Z,2.52
2019-02-23T09:44:18.126Z,2.92
2019-02-23T09:47:04.485Z,3.98
2019-02-23T09:59:55.344Z,2.30
2019-02-23T10:02:19.970Z,2.62
2019-02-23T10:04:50.181Z,2.52
2019-02-23T10:07:18.875Z,2.75
2019-02-23T10:09:50.107Z,2.65
2019-02-23T10:12:28.779Z,2.05
2019-02-23T10:15:02.855Z,2.50
2019-02-23T10:17:42.908Z,2.30
2019-02-23T10:23:50.508Z,2.70
2019-02-23T10:26:19.195Z,2.55
2019-02-23T10:32:21.485Z,2.37
2019-02-23T10:45:22.295Z,2.25
2019-02-23T10:47:52.929Z,2.20
2019-02-23T10:54:04.641Z,2.55
2019-02-23T10:56:36.513Z,2.85
2019-02-23T10:59:05.712Z,3.60
2019-02-23T11:01:36.927Z,2.70
2019-02-23T11:04:07.177Z,3.50
2019-02-23T11:06:38.442Z,1.65
2019-02-23T11:09:08.599Z,2.75
2019-02-23T11:11:37.325Z,2.90
2019-02-23T11:14:08.466Z,2.67
2019-02-23T11:16:37.357Z,3.77
2019-02-23T11:19:09.934Z,3.30
2019-02-23T11:57:27.199Z,2.70
2019-02-23T12:08:06.994Z,2.60
2019-02-23T12:10:37.115Z,3.62
2019-02-23T12:13:06.255Z,2.67
2019-02-23T12:15:37.763Z,4.50
2019-02-23T12:28:29.044Z,2.85
2019-02-23T12:30:58.038Z,2.62
2019-02-23T12:55:58.820Z,3.60
2019-02-23T13:01:16.499Z,2.98
2019-02-23T13:22:46.099Z,3.80
2019-02-23T13:59:03.257Z,3.27
2019-02-23T15:03:26.956Z,2.92
2019-02-23T15:06:27.498Z,2.77
2019-02-23T15:09:09.348Z,2.85
2019-02-23T15:15:40.963Z,2.65
2019-02-23T15:18:46.216Z,2.70
2019-02-23T15:21:18.162Z,2.15
2019-02-23T15:24:12.465Z,3.02
2019-02-23T15:27:20.249Z,2.67
2019-02-23T15:33:31.324Z,2.42
2019-02-23T15:36:15.199Z,2.77
2019-02-23T15:39:03.750Z,3.30
2019-02-23T15:41:50.670Z,2.75
2019-02-23T15:44:34.533Z,2.45
2019-02-23T15:47:18.473Z,3.25
2019-02-23T15:49:47.351Z,3.35
2019-02-23T15:52:16.016Z,3.00
2019-02-23T15:54:45.018Z,2.37
2019-02-23T15:57:48.409Z,3.27
2019-02-23T16:00:19.011Z,2.87
2019-02-23T16:02:47.802Z,3.37
2019-02-23T16:05:18.743Z,4.20
2019-02-23T16:07:47.518Z,3.75
2019-02-23T16:10:18.979Z,3.27
2019-02-23T16:12:52.097Z,3.33
2019-02-23T16:15:20.855Z,3.42
2019-02-23T16:17:50.083Z,3.42
2019-02-23T16:20:33.587Z,2.90
2019-02-23T16:23:06.808Z,3.17
2019-02-23T16:25:41.202Z,2.83
2019-02-23T16:28:31.824Z,3.62
2019-02-23T16:31:20.609Z,3.50
2019-02-23T16:33:59.482Z,3.45
2019-02-23T16:36:53.177Z,3.60
2019-02-23T16:39:21.861Z,3.62
2019-02-23T16:41:51.034Z,2.83
2019-02-23T16:44:20.234Z,3.47
2019-02-23T16:46:58.090Z,4.22
2019-02-23T16:50:03.551Z,3.72
2019-02-23T16:52:41.484Z,3.15
2019-02-23T16:58:31.593Z,3.35
2019-02-23T17:01:20.978Z,4.08
2019-02-23T17:03:58.358Z,4.08
2019-02-23T17:06:41.581Z,4.20
2019-02-23T17:09:26.759Z,4.37
2019-02-23T17:12:06.472Z,4.00
2019-02-23T17:14:51.877Z,6.17
2019-02-23T17:17:27.841Z,4.83
2019-02-23T17:20:02.561Z,4.65
2019-02-23T17:22:34.689Z,4.20
2019-02-23T17:25:23.179Z,4.42
2019-02-23T17:28:00.158Z,5.33
2019-02-23T17:30:44.101Z,4.62
2019-02-23T17:36:27.776Z,5.05
2019-02-23T17:38:59.825Z,4.87
2019-02-23T17:41:39.666Z,4.45
2019-02-23T17:44:14.710Z,5.42
2019-02-23T17:46:54.634Z,5.50
2019-02-23T17:49:50.140Z,4.80
2019-02-23T17:52:32.656Z,4.83
2019-02-23T17:55:10.998Z,5.08
2019-02-23T17:57:46.985Z,4.47
2019-02-23T18:00:26.171Z,4.72
2019-02-23T18:03:00.580Z,4.95
2019-02-23T18:05:29.783Z,5.60
2019-02-23T18:08:06.589Z,5.78
2019-02-23T18:10:40.256Z,5.50
2019-02-23T18:13:11.938Z,4.67
2019-02-23T18:15:43.786Z,5.30
2019-02-23T18:18:14.213Z,6.35
2019-02-23T18:20:43.190Z,5.37
2019-02-23T18:23:18.942Z,5.72
2019-02-23T18:25:47.849Z,4.85
2019-02-23T18:28:25.346Z,5.97
2019-02-23T18:30:53.581Z,6.50
2019-02-23T18:33:35.410Z,6.12
2019-02-23T18:36:22.942Z,5.53
2019-02-23T18:38:59.000Z,7.92
2019-02-23T18:41:48.061Z,9.05
2019-02-23T18:47:36.316Z,8.88
2019-02-23T18:50:15.661Z,16.12
2019-02-23T18:53:04.832Z,14.53
2019-02-23T18:55:41.112Z,12.10
2019-02-23T18:58:11.311Z,11.43
2019-02-23T19:00:46.758Z,10.75
2019-02-23T19:03:31.206Z,11.55
2019-02-23T19:08:41.895Z,10.43
2019-02-23T19:11:12.530Z,10.03
2019-02-23T19:16:47.864Z,10.85
2019-02-23T19:19:27.064Z,10.18
2019-02-23T19:22:06.253Z,10.48
2019-02-23T19:24:39.669Z,11.15
2019-02-23T19:27:12.879Z,9.18
2019-02-23T19:29:41.711Z,11.30
2019-02-23T19:32:13.087Z,10.58
2019-02-23T19:34:43.392Z,9.58
2019-02-23T19:37:14.473Z,11.38
2019-02-23T19:39:42.509Z,10.10
2019-02-23T19:42:11.807Z,11.12
2019-02-23T19:44:54.859Z,9.90
2019-02-23T19:47:15.036Z,10.08
2019-02-23T19:49:46.579Z,10.95
2019-02-23T19:52:16.829Z,11.12
2019-02-23T19:54:45.490Z,10.35
2019-02-23T19:57:17.131Z,11.55
2019-02-23T19:59:45.780Z,10.03
2019-02-23T20:02:14.284Z,11.53
2019-02-23T20:04:43.017Z,10.32
2019-02-23T20:07:11.577Z,11.80
2019-02-23T20:09:41.389Z,12.40
2019-02-23T20:12:09.946Z,12.50
2019-02-23T20:14:38.666Z,11.50
2019-02-23T20:17:07.379Z,11.48
2019-02-23T20:19:35.855Z,10.70
2019-02-23T20:22:04.534Z,10.95
2019-02-23T20:24:36.046Z,9.25
2019-02-23T20:27:06.890Z,8.70
2019-02-23T20:29:37.732Z,9.00
2019-02-23T20:32:06.225Z,9.98
2019-02-23T20:34:34.758Z,11.53
2019-02-23T20:37:06.098Z,10.88
2019-02-23T20:39:46.940Z,10.70
2019-02-23T20:42:18.856Z,9.60
2019-02-23T20:44:48.791Z,10.40
2019-02-23T20:47:19.120Z,13.53
2019-02-23T20:49:50.440Z,14.23
2019-02-23T20:52:18.953Z,9.45
2019-02-23T20:54:47.513Z,10.00
2019-02-23T20:57:16.042Z,10.28
2019-02-23T20:59:44.537Z,8.90
2019-02-23T21:02:20.361Z,8.93
2019-02-23T21:04:49.202Z,9.50
2019-02-23T21:07:17.676Z,8.35
2019-02-23T21:09:46.259Z,8.18
2019-02-23T21:12:14.845Z,7.05
2019-02-23T21:14:43.335Z,7.60
2019-02-23T21:17:11.834Z,8.78
2019-02-23T21:19:42.816Z,6.62
2019-02-23T21:22:11.466Z,7.30
2019-02-23T21:24:39.941Z,9.05
2019-02-23T21:27:12.973Z,9.30
2019-02-23T21:29:38.593Z,8.85
2019-02-23T21:32:07.292Z,7.58
2019-02-23T21:34:35.830Z,6.37
2019-02-23T21:37:04.327Z,6.40
2019-02-23T21:39:35.682Z,7.33
2019-02-23T21:42:06.089Z,6.17
2019-02-23T21:44:34.710Z,6.75
2019-02-23T21:47:03.363Z,7.15
2019-02-23T21:49:32.016Z,7.47
2019-02-23T21:52:00.530Z,7.22
2019-02-23T21:54:29.218Z,6.67
2019-02-23T21:57:00.584Z,7.40
2019-02-23T21:59:32.097Z,6.85
2019-02-23T22:02:02.291Z,6.40
2019-02-23T22:04:30.808Z,6.62
2019-02-23T22:09:45.236Z,5.67
2019-02-23T22:12:15.084Z,5.87
2019-02-23T22:14:43.784Z,6.08
2019-02-23T22:17:12.190Z,7.20
2019-02-23T22:19:40.625Z,6.40
2019-02-23T22:22:09.318Z,6.08
2019-02-23T22:24:37.838Z,5.92
2019-02-23T22:27:06.433Z,6.15
2019-02-23T22:29:34.952Z,6.50
2019-02-23T22:32:03.380Z,6.00
2019-02-23T22:34:31.881Z,5.30
2019-02-23T22:37:02.593Z,6.75
2019-02-23T22:39:31.063Z,5.95
2019-02-23T22:41:59.516Z,6.30
2019-02-23T22:44:28.012Z,7.08
2019-02-23T22:46:56.843Z,5.95
2019-02-23T22:49:25.439Z,5.08
2019-02-23T22:51:53.836Z,6.50
2019-02-23T22:54:22.434Z,5.65
2019-02-23T22:56:50.851Z,5.90
2019-02-23T22:59:19.294Z,6.58
2019-02-23T23:01:47.870Z,6.92
2019-02-23T23:04:16.397Z,5.47
2019-02-23T23:06:45.300Z,5.92
2019-02-23T23:09:15.374Z,6.05
2019-02-23T23:11:43.816Z,5.08
2019-02-23T23:14:12.419Z,6.12
2019-02-23T23:16:40.856Z,5.10
2019-02-23T23:19:09.413Z,5.00
2019-02-23T23:21:37.923Z,5.97
2019-02-23T23:24:06.506Z,5.40
2019-02-23T23:26:35.209Z,6.12
2019-02-23T23:29:03.829Z,4.78
2019-02-23T23:31:32.375Z,5.55
2019-02-23T23:34:00.893Z,5.83
2019-02-23T23:36:29.510Z,5.58
2019-02-23T23:38:58.057Z,5.58
2019-02-23T23:41:26.728Z,6.05
2019-02-23T23:43:55.192Z,6.25
2019-02-23T23:46:23.754Z,7.15
2019-02-23T23:48:52.325Z,7.28
2019-02-23T23:51:20.825Z,5.95
2019-02-23T23:53:49.424Z,5.30
2019-02-23T23:56:17.909Z,5.90
2019-02-23T23:58:46.547Z,5.67
